Sect Canales, Puerto Rico
Current Conditions -  °F | °C
As of 1:56 PM on Friday 19 Dec 2014 (Local Time) from TJSJ Reporting Station
Scattered Clouds Scattered Clouds  
Wind Chill: 84°   Ceiling: Unl
Heat Index: 87°   Visibility: 10mi
Dew Point: 68°   Wind: 13mph
Humidity: 58%   Direction: 80°E
Pressure: 29.96"   Gusts: NA
Location:  18.2339°N, 65.9218°W
Report Text: TJSJ 191756Z 08011KT 10SM SCT042 SCT080 29/20 A2996 RMK AO2 SLP145 T02890200 10294 20244 58018
Loading
Personal Weather Stations






























Interactive Weather Map New forecast layout! Learn more

10-Day Weather Forecast

Advertisements
Track Severe Weather on mobile